sensor_id;sensor_type;location;lat;lon;timestamp;pressure;altitude;pressure_sealevel;temperature;humidity
19672;BME280;9983;51.114;13.788;2023-03-16T00:01:48;99917.22;;;0.61;100.00
19672;BME280;9983;51.114;13.788;2023-03-16T00:06:48;99904.22;;;1.10;100.00
19672;BME280;9983;51.114;13.788;2023-03-16T00:11:48;99914.13;;;0.94;100.00
19672;BME280;9983;51.114;13.788;2023-03-16T00:16:49;99917.72;;;0.41;100.00
19672;BME280;9983;51.114;13.788;2023-03-16T00:21:50;99906.84;;;0.18;100.00
19672;BME280;9983;51.114;13.788;2023-03-16T00:26:50;99909.31;;;0.34;100.00
19672;BME280;9983;51.114;13.788;2023-03-16T00:31:53;99907.66;;;0.33;100.00
19672;BME280;9983;51.114;13.788;2023-03-16T00:36:54;99909.28;;;0.48;100.00
19672;BME280;9983;51.114;13.788;2023-03-16T00:41:54;99910.06;;;0.36;100.00
19672;BME280;9983;51.114;13.788;2023-03-16T00:46:57;99911.06;;;0.21;100.00
19672;BME280;9983;51.114;13.788;2023-03-16T00:51:57;99916.19;;;0.10;100.00
19672;BME280;9983;51.114;13.788;2023-03-16T00:56:58;99922.63;;;0.32;100.00
19672;BME280;9983;51.114;13.788;2023-03-16T01:01:59;99919.16;;;0.18;100.00
19672;BME280;9983;51.114;13.788;2023-03-16T01:07:00;99918.41;;;0.30;100.00
19672;BME280;9983;51.114;13.788;2023-03-16T01:12:03;99927.44;;;0.26;100.00
19672;BME280;9983;51.114;13.788;2023-03-16T01:17:07;99928.63;;;0.61;100.00
19672;BME280;9983;51.114;13.788;2023-03-16T01:22:08;99934.84;;;-0.08;100.00
19672;BME280;9983;51.114;13.788;2023-03-16T01:27:09;99948.06;;;-0.22;100.00
19672;BME280;9983;51.114;13.788;2023-03-16T01:32:09;99956.31;;;-0.14;100.00
19672;BME280;9983;51.114;13.788;2023-03-16T01:37:11;99960.69;;;0.55;100.00
19672;BME280;9983;51.114;13.788;2023-03-16T01:42:11;99970.84;;;-0.21;100.00
19672;BME280;9983;51.114;13.788;2023-03-16T01:47:11;99958.78;;;-0.53;100.00
19672;BME280;9983;51.114;13.788;2023-03-16T01:52:20;99958.97;;;-0.28;100.00
19672;BME280;9983;51.114;13.788;2023-03-16T01:57:27;99952.75;;;-0.13;100.00
19672;BME280;9983;51.114;13.788;2023-03-16T02:02:30;99952.38;;;-0.21;100.00
19672;BME280;9983;51.114;13.788;2023-03-16T02:07:39;99957.47;;;-0.18;100.00
19672;BME280;9983;51.114;13.788;2023-03-16T02:12:41;99963.88;;;-0.22;100.00
19672;BME280;9983;51.114;13.788;2023-03-16T02:17:43;99948.34;;;0.29;100.00
19672;BME280;9983;51.114;13.788;2023-03-16T02:22:47;99948.78;;;0.35;100.00
19672;BME280;9983;51.114;13.788;2023-03-16T02:28:11;99954.19;;;0.20;100.00
19672;BME280;9983;51.114;13.788;2023-03-16T02:33:15;99956.06;;;0.32;100.00
19672;BME280;9983;51.114;13.788;2023-03-16T02:38:16;99952.13;;;0.25;100.00
19672;BME280;9983;51.114;13.788;2023-03-16T02:43:19;99957.59;;;0.22;100.00
19672;BME280;9983;51.114;13.788;2023-03-16T02:48:30;99954.56;;;0.28;100.00
19672;BME280;9983;51.114;13.788;2023-03-16T02:53:33;99955.00;;;0.08;100.00
19672;BME280;9983;51.114;13.788;2023-03-16T02:58:33;99960.63;;;0.02;100.00
19672;BME280;9983;51.114;13.788;2023-03-16T03:03:34;99955.84;;;0.08;100.00
19672;BME280;9983;51.114;13.788;2023-03-16T03:08:35;99962.44;;;-0.13;100.00
19672;BME280;9983;51.114;13.788;2023-03-16T03:13:35;99967.66;;;-0.26;100.00
19672;BME280;9983;51.114;13.788;2023-03-16T03:18:38;99972.81;;;-0.10;100.00
19672;BME280;9983;51.114;13.788;2023-03-16T03:23:38;99964.47;;;0.10;100.00
19672;BME280;9983;51.114;13.788;2023-03-16T03:28:38;99976.63;;;-0.72;100.00
19672;BME280;9983;51.114;13.788;2023-03-16T03:33:39;99975.16;;;-0.06;100.00
19672;BME280;9983;51.114;13.788;2023-03-16T03:38:39;99980.56;;;0.20;100.00
19672;BME280;9983;51.114;13.788;2023-03-16T03:43:39;99981.19;;;-0.18;100.00
19672;BME280;9983;51.114;13.788;2023-03-16T03:48:40;99985.13;;;0.04;100.00
19672;BME280;9983;51.114;13.788;2023-03-16T03:53:40;99984.38;;;0.16;100.00
19672;BME280;9983;51.114;13.788;2023-03-16T03:58:40;99989.50;;;0.31;100.00
19672;BME280;9983;51.114;13.788;2023-03-16T04:03:41;99994.91;;;0.16;100.00
19672;BME280;9983;51.114;13.788;2023-03-16T04:08:41;99987.72;;;0.32;100.00
19672;BME280;9983;51.114;13.788;2023-03-16T04:13:41;99985.66;;;0.23;100.00
19672;BME280;9983;51.114;13.788;2023-03-16T04:18:42;99980.75;;;0.31;100.00
19672;BME280;9983;51.114;13.788;2023-03-16T04:23:42;99991.44;;;0.42;100.00
19672;BME280;9983;51.114;13.788;2023-03-16T04:28:43;99989.41;;;0.19;100.00
19672;BME280;9983;51.114;13.788;2023-03-16T04:33:43;99992.47;;;-0.02;100.00
19672;BME280;9983;51.114;13.788;2023-03-16T04:38:43;99999.22;;;0.03;100.00
19672;BME280;9983;51.114;13.788;2023-03-16T04:43:44;99991.25;;;0.04;100.00
19672;BME280;9983;51.114;13.788;2023-03-16T04:48:44;99993.97;;;0.03;100.00
19672;BME280;9983;51.114;13.788;2023-03-16T04:53:44;99984.13;;;0.33;100.00
19672;BME280;9983;51.114;13.788;2023-03-16T04:58:46;99985.13;;;0.45;100.00
19672;BME280;9983;51.114;13.788;2023-03-16T05:03:46;99985.84;;;0.20;100.00
19672;BME280;9983;51.114;13.788;2023-03-16T05:08:48;99988.69;;;0.03;100.00
19672;BME280;9983;51.114;13.788;2023-03-16T05:13:49;99997.19;;;0.08;100.00
19672;BME280;9983;51.114;13.788;2023-03-16T05:18:49;99999.63;;;-0.04;100.00
19672;BME280;9983;51.114;13.788;2023-03-16T05:23:49;99999.63;;;-0.32;100.00
19672;BME280;9983;51.114;13.788;2023-03-16T05:28:50;100007.81;;;-0.81;100.00
19672;BME280;9983;51.114;13.788;2023-03-16T05:33:51;100004.72;;;-0.29;100.00
19672;BME280;9983;51.114;13.788;2023-03-16T05:38:52;100004.91;;;-0.04;100.00
19672;BME280;9983;51.114;13.788;2023-03-16T05:43:53;100014.19;;;0.02;100.00
19672;BME280;9983;51.114;13.788;2023-03-16T05:48:53;100017.50;;;0.06;100.00
19672;BME280;9983;51.114;13.788;2023-03-16T05:53:54;100022.69;;;0.07;100.00
19672;BME280;9983;51.114;13.788;2023-03-16T05:58:57;100016.16;;;0.41;100.00
19672;BME280;9983;51.114;13.788;2023-03-16T06:03:57;100024.25;;;0.38;100.00
19672;BME280;9983;51.114;13.788;2023-03-16T06:08:57;100022.00;;;-0.53;100.00
19672;BME280;9983;51.114;13.788;2023-03-16T06:13:59;100019.00;;;-0.05;100.00
19672;BME280;9983;51.114;13.788;2023-03-16T06:19:00;100015.75;;;0.47;100.00
19672;BME280;9983;51.114;13.788;2023-03-16T06:24:00;100024.13;;;0.81;100.00
19672;BME280;9983;51.114;13.788;2023-03-16T06:29:01;100031.34;;;0.91;100.00
19672;BME280;9983;51.114;13.788;2023-03-16T06:34:01;100028.31;;;0.70;100.00
19672;BME280;9983;51.114;13.788;2023-03-16T06:39:02;100027.66;;;1.33;100.00
19672;BME280;9983;51.114;13.788;2023-03-16T06:44:03;100027.38;;;1.50;100.00
19672;BME280;9983;51.114;13.788;2023-03-16T06:49:05;100029.78;;;1.53;100.00
19672;BME280;9983;51.114;13.788;2023-03-16T06:54:05;100028.09;;;1.78;100.00
19672;BME280;9983;51.114;13.788;2023-03-16T06:59:06;100036.97;;;1.77;100.00
19672;BME280;9983;51.114;13.788;2023-03-16T07:04:06;100031.94;;;1.99;100.00
19672;BME280;9983;51.114;13.788;2023-03-16T07:09:07;100038.44;;;2.19;100.00
19672;BME280;9983;51.114;13.788;2023-03-16T07:14:07;100039.28;;;2.19;100.00
19672;BME280;9983;51.114;13.788;2023-03-16T07:19:08;100037.72;;;2.66;100.00
19672;BME280;9983;51.114;13.788;2023-03-16T07:24:09;100040.97;;;2.93;100.00
19672;BME280;9983;51.114;13.788;2023-03-16T07:29:09;100041.59;;;3.21;100.00
19672;BME280;9983;51.114;13.788;2023-03-16T07:34:11;100046.09;;;3.31;100.00
19672;BME280;9983;51.114;13.788;2023-03-16T07:39:11;100052.84;;;3.70;100.00
19672;BME280;9983;51.114;13.788;2023-03-16T07:44:13;100038.13;;;3.77;100.00
19672;BME280;9983;51.114;13.788;2023-03-16T07:49:13;100048.78;;;4.00;100.00
19672;BME280;9983;51.114;13.788;2023-03-16T07:54:15;100045.66;;;4.39;100.00
19672;BME280;9983;51.114;13.788;2023-03-16T07:59:16;100051.19;;;4.47;98.03
19672;BME280;9983;51.114;13.788;2023-03-16T08:04:16;100047.06;;;4.77;92.65
19672;BME280;9983;51.114;13.788;2023-03-16T08:09:17;100049.16;;;5.05;91.29
19672;BME280;9983;51.114;13.788;2023-03-16T08:14:17;100053.81;;;5.24;82.99
19672;BME280;9983;51.114;13.788;2023-03-16T08:19:17;100042.88;;;5.59;82.76
19672;BME280;9983;51.114;13.788;2023-03-16T08:24:19;100049.94;;;5.69;77.14
19672;BME280;9983;51.114;13.788;2023-03-16T08:29:19;100051.31;;;6.05;75.58
19672;BME280;9983;51.114;13.788;2023-03-16T08:34:20;100053.63;;;6.20;73.29
19672;BME280;9983;51.114;13.788;2023-03-16T08:39:20;100047.66;;;6.37;68.85
19672;BME280;9983;51.114;13.788;2023-03-16T08:44:20;100057.28;;;6.49;65.12
19672;BME280;9983;51.114;13.788;2023-03-16T08:49:22;100061.63;;;6.50;61.18
19672;BME280;9983;51.114;13.788;2023-03-16T08:54:23;100067.19;;;6.87;62.31
19672;BME280;9983;51.114;13.788;2023-03-16T08:59:23;100057.00;;;7.21;62.46
19672;BME280;9983;51.114;13.788;2023-03-16T09:04:23;100059.25;;;7.16;56.61
19672;BME280;9983;51.114;13.788;2023-03-16T09:09:24;100065.28;;;7.18;63.32
19672;BME280;9983;51.114;13.788;2023-03-16T09:14:24;100060.66;;;7.49;59.94
19672;BME280;9983;51.114;13.788;2023-03-16T09:19:24;100064.97;;;7.88;55.14
19672;BME280;9983;51.114;13.788;2023-03-16T09:24:24;100071.34;;;7.58;54.38
19672;BME280;9983;51.114;13.788;2023-03-16T09:29:25;100076.47;;;8.08;55.43
19672;BME280;9983;51.114;13.788;2023-03-16T09:34:25;100067.25;;;8.40;55.00
19672;BME280;9983;51.114;13.788;2023-03-16T09:39:26;100072.19;;;8.34;54.67
19672;BME280;9983;51.114;13.788;2023-03-16T09:44:38;100076.56;;;8.35;52.55
19672;BME280;9983;51.114;13.788;2023-03-16T09:49:47;100077.28;;;8.65;51.97
19672;BME280;9983;51.114;13.788;2023-03-16T09:54:52;100071.00;;;8.00;50.79
19672;BME280;9983;51.114;13.788;2023-03-16T10:00:13;100063.53;;;8.60;47.42
19672;BME280;9983;51.114;13.788;2023-03-16T10:05:19;100064.09;;;9.08;47.85
19672;BME280;9983;51.114;13.788;2023-03-16T10:15:37;100064.47;;;9.67;45.61
19672;BME280;9983;51.114;13.788;2023-03-16T10:20:39;100049.06;;;9.86;46.78
19672;BME280;9983;51.114;13.788;2023-03-16T10:25:48;100057.31;;;10.37;44.47
19672;BME280;9983;51.114;13.788;2023-03-16T10:30:53;100059.34;;;10.85;43.23
19672;BME280;9983;51.114;13.788;2023-03-16T10:41:41;100051.09;;;11.36;43.35
19672;BME280;9983;51.114;13.788;2023-03-16T10:47:15;100049.06;;;11.38;39.49
19672;BME280;9983;51.114;13.788;2023-03-16T11:02:33;100046.75;;;11.60;36.35
19672;BME280;9983;51.114;13.788;2023-03-16T11:07:34;100022.91;;;12.91;34.63
19672;BME280;9983;51.114;13.788;2023-03-16T11:12:35;100032.66;;;13.23;37.23
19672;BME280;9983;51.114;13.788;2023-03-16T11:17:38;100013.50;;;13.87;35.92
19672;BME280;9983;51.114;13.788;2023-03-16T11:22:44;100013.72;;;14.73;34.49
19672;BME280;9983;51.114;13.788;2023-03-16T11:28:12;100000.75;;;15.19;32.37
19672;BME280;9983;51.114;13.788;2023-03-16T11:33:14;99999.91;;;15.55;30.24
19672;BME280;9983;51.114;13.788;2023-03-16T11:38:18;99990.50;;;16.41;31.38
19672;BME280;9983;51.114;13.788;2023-03-16T11:49:10;99979.22;;;17.39;25.94
19672;BME280;9983;51.114;13.788;2023-03-16T11:54:29;99976.16;;;17.89;25.86
19672;BME280;9983;51.114;13.788;2023-03-16T12:10:23;99956.25;;;18.21;27.45
19672;BME280;9983;51.114;13.788;2023-03-16T12:15:31;99958.59;;;18.75;25.71
19672;BME280;9983;51.114;13.788;2023-03-16T12:20:43;99946.13;;;18.61;25.67
19672;BME280;9983;51.114;13.788;2023-03-16T12:25:47;99948.38;;;17.67;26.45
19672;BME280;9983;51.114;13.788;2023-03-16T12:36:01;99946.13;;;15.94;27.83
19672;BME280;9983;51.114;13.788;2023-03-16T12:46:38;99933.72;;;15.51;29.45
19672;BME280;9983;51.114;13.788;2023-03-16T12:51:42;99939.91;;;15.45;27.39
19672;BME280;9983;51.114;13.788;2023-03-16T12:56:44;99923.13;;;14.86;29.37
19672;BME280;9983;51.114;13.788;2023-03-16T13:01:49;99925.03;;;16.18;27.25
19672;BME280;9983;51.114;13.788;2023-03-16T13:07:00;99921.63;;;16.03;27.64
19672;BME280;9983;51.114;13.788;2023-03-16T13:12:02;99926.00;;;15.69;26.92
19672;BME280;9983;51.114;13.788;2023-03-16T13:17:22;99908.75;;;16.05;26.29
19672;BME280;9983;51.114;13.788;2023-03-16T13:22:29;99908.94;;;16.44;25.29
19672;BME280;9983;51.114;13.788;2023-03-16T13:27:32;99896.88;;;16.40;26.81
19672;BME280;9983;51.114;13.788;2023-03-16T13:32:33;99901.41;;;15.99;26.76
19672;BME280;9983;51.114;13.788;2023-03-16T13:37:34;99892.50;;;17.39;24.35
19672;BME280;9983;51.114;13.788;2023-03-16T13:42:34;99883.25;;;16.75;24.68
19672;BME280;9983;51.114;13.788;2023-03-16T13:47:35;99892.91;;;17.36;25.43
19672;BME280;9983;51.114;13.788;2023-03-16T13:52:35;99884.88;;;16.62;25.51
19672;BME280;9983;51.114;13.788;2023-03-16T13:57:37;99892.38;;;15.78;28.76
19672;BME280;9983;51.114;13.788;2023-03-16T14:02:43;99875.25;;;16.53;28.08
19672;BME280;9983;51.114;13.788;2023-03-16T14:07:48;99860.72;;;16.61;28.61
19672;BME280;9983;51.114;13.788;2023-03-16T14:12:54;99856.22;;;17.40;27.46
19672;BME280;9983;51.114;13.788;2023-03-16T14:18:09;99848.28;;;17.32;27.48
19672;BME280;9983;51.114;13.788;2023-03-16T14:23:52;99844.94;;;17.57;27.01
19672;BME280;9983;51.114;13.788;2023-03-16T14:29:01;99841.06;;;18.10;25.71
19672;BME280;9983;51.114;13.788;2023-03-16T14:34:05;99849.16;;;18.68;25.82
19672;BME280;9983;51.114;13.788;2023-03-16T14:39:12;99847.75;;;19.90;23.68
19672;BME280;9983;51.114;13.788;2023-03-16T14:44:25;99840.47;;;19.65;24.71
19672;BME280;9983;51.114;13.788;2023-03-16T14:49:30;99837.66;;;20.45;23.83
19672;BME280;9983;51.114;13.788;2023-03-16T14:54:32;99832.47;;;21.73;22.70
19672;BME280;9983;51.114;13.788;2023-03-16T14:59:32;99838.91;;;20.61;23.44
19672;BME280;9983;51.114;13.788;2023-03-16T15:04:33;99839.09;;;20.48;23.89
19672;BME280;9983;51.114;13.788;2023-03-16T15:09:37;99819.88;;;20.42;24.29
19672;BME280;9983;51.114;13.788;2023-03-16T15:14:38;99827.34;;;20.77;23.73
19672;BME280;9983;51.114;13.788;2023-03-16T15:19:57;99824.88;;;21.29;23.41
19672;BME280;9983;51.114;13.788;2023-03-16T15:30:23;99819.28;;;20.22;24.20
19672;BME280;9983;51.114;13.788;2023-03-16T15:35:25;99820.88;;;19.32;25.01
19672;BME280;9983;51.114;13.788;2023-03-16T15:40:27;99827.59;;;19.05;25.00
19672;BME280;9983;51.114;13.788;2023-03-16T15:45:27;99827.25;;;18.94;23.66
19672;BME280;9983;51.114;13.788;2023-03-16T15:50:28;99819.00;;;17.94;26.00
19672;BME280;9983;51.114;13.788;2023-03-16T15:55:35;99801.34;;;18.23;25.66
19672;BME280;9983;51.114;13.788;2023-03-16T16:00:36;99791.50;;;17.90;26.04
19672;BME280;9983;51.114;13.788;2023-03-16T16:05:38;99787.03;;;16.72;27.82
19672;BME280;9983;51.114;13.788;2023-03-16T16:10:40;99800.78;;;16.77;27.03
19672;BME280;9983;51.114;13.788;2023-03-16T16:15:40;99808.84;;;15.28;28.79
19672;BME280;9983;51.114;13.788;2023-03-16T16:20:41;99807.09;;;15.13;28.54
19672;BME280;9983;51.114;13.788;2023-03-16T16:25:41;99814.19;;;14.00;29.67
19672;BME280;9983;51.114;13.788;2023-03-16T16:30:42;99816.75;;;13.43;31.42
19672;BME280;9983;51.114;13.788;2023-03-16T16:35:42;99821.63;;;12.64;32.00
19672;BME280;9983;51.114;13.788;2023-03-16T16:40:44;99837.81;;;12.56;32.97
19672;BME280;9983;51.114;13.788;2023-03-16T16:45:45;99830.50;;;11.88;33.65
19672;BME280;9983;51.114;13.788;2023-03-16T16:50:46;99825.13;;;11.88;34.05
19672;BME280;9983;51.114;13.788;2023-03-16T16:55:46;99829.56;;;11.57;35.55
19672;BME280;9983;51.114;13.788;2023-03-16T17:00:51;99824.09;;;11.26;36.31
19672;BME280;9983;51.114;13.788;2023-03-16T17:05:53;99819.28;;;10.64;37.83
19672;BME280;9983;51.114;13.788;2023-03-16T17:10:54;99812.88;;;10.41;38.76
19672;BME280;9983;51.114;13.788;2023-03-16T17:15:55;99812.56;;;10.28;39.79
19672;BME280;9983;51.114;13.788;2023-03-16T17:20:55;99816.25;;;10.43;39.65
19672;BME280;9983;51.114;13.788;2023-03-16T17:25:57;99812.63;;;9.60;42.06
19672;BME280;9983;51.114;13.788;2023-03-16T17:30:58;99812.38;;;9.11;43.53
19672;BME280;9983;51.114;13.788;2023-03-16T17:35:58;99826.91;;;9.43;43.71
19672;BME280;9983;51.114;13.788;2023-03-16T17:41:00;99821.47;;;9.27;44.72
19672;BME280;9983;51.114;13.788;2023-03-16T17:46:01;99822.03;;;8.87;45.31
19672;BME280;9983;51.114;13.788;2023-03-16T17:51:03;99812.75;;;8.37;47.20
19672;BME280;9983;51.114;13.788;2023-03-16T17:56:13;99793.44;;;8.87;47.46
19672;BME280;9983;51.114;13.788;2023-03-16T18:01:14;99807.16;;;8.66;48.07
19672;BME280;9983;51.114;13.788;2023-03-16T18:06:19;99796.63;;;8.12;51.28
19672;BME280;9983;51.114;13.788;2023-03-16T18:11:22;99800.00;;;8.49;49.51
19672;BME280;9983;51.114;13.788;2023-03-16T18:16:24;99802.88;;;8.56;49.14
19672;BME280;9983;51.114;13.788;2023-03-16T18:21:28;99791.69;;;8.52;49.21
19672;BME280;9983;51.114;13.788;2023-03-16T18:26:29;99787.72;;;8.38;49.23
19672;BME280;9983;51.114;13.788;2023-03-16T18:31:30;99782.50;;;8.37;53.11
19672;BME280;9983;51.114;13.788;2023-03-16T18:36:35;99769.81;;;8.21;50.52
19672;BME280;9983;51.114;13.788;2023-03-16T18:41:36;99784.03;;;8.40;49.63
19672;BME280;9983;51.114;13.788;2023-03-16T18:46:37;99791.16;;;8.49;49.93
19672;BME280;9983;51.114;13.788;2023-03-16T18:51:38;99772.28;;;8.68;49.57
19672;BME280;9983;51.114;13.788;2023-03-16T18:56:39;99770.72;;;8.83;48.21
19672;BME280;9983;51.114;13.788;2023-03-16T19:01:41;99763.56;;;8.66;50.46
19672;BME280;9983;51.114;13.788;2023-03-16T19:06:42;99755.91;;;8.71;50.01
19672;BME280;9983;51.114;13.788;2023-03-16T19:11:43;99760.19;;;8.64;49.86
19672;BME280;9983;51.114;13.788;2023-03-16T19:16:43;99758.63;;;8.79;49.19
19672;BME280;9983;51.114;13.788;2023-03-16T19:21:44;99753.91;;;8.73;50.26
19672;BME280;9983;51.114;13.788;2023-03-16T19:26:44;99749.03;;;8.43;51.96
19672;BME280;9983;51.114;13.788;2023-03-16T19:31:45;99741.75;;;8.53;50.37
19672;BME280;9983;51.114;13.788;2023-03-16T19:36:45;99743.66;;;8.25;51.72
19672;BME280;9983;51.114;13.788;2023-03-16T19:41:49;99733.69;;;8.45;50.65
19672;BME280;9983;51.114;13.788;2023-03-16T19:46:53;99729.69;;;8.13;50.46
19672;BME280;9983;51.114;13.788;2023-03-16T19:51:54;99722.91;;;8.19;51.85
19672;BME280;9983;51.114;13.788;2023-03-16T19:56:57;99732.06;;;8.16;51.00
19672;BME280;9983;51.114;13.788;2023-03-16T20:01:58;99731.81;;;7.92;50.81
19672;BME280;9983;51.114;13.788;2023-03-16T20:06:59;99739.13;;;7.90;51.62
19672;BME280;9983;51.114;13.788;2023-03-16T20:11:59;99742.50;;;7.92;51.36
19672;BME280;9983;51.114;13.788;2023-03-16T20:16:59;99738.84;;;7.93;50.79
19672;BME280;9983;51.114;13.788;2023-03-16T20:22:00;99740.38;;;8.13;51.83
19672;BME280;9983;51.114;13.788;2023-03-16T20:27:00;99739.78;;;8.19;50.40
19672;BME280;9983;51.114;13.788;2023-03-16T20:32:05;99737.69;;;7.95;50.86
19672;BME280;9983;51.114;13.788;2023-03-16T20:37:19;99721.00;;;8.11;51.58
19672;BME280;9983;51.114;13.788;2023-03-16T20:42:26;99724.25;;;7.87;52.64
19672;BME280;9983;51.114;13.788;2023-03-16T20:47:27;99716.50;;;8.12;50.55
19672;BME280;9983;51.114;13.788;2023-03-16T20:52:28;99718.41;;;7.84;51.97
19672;BME280;9983;51.114;13.788;2023-03-16T20:57:28;99709.41;;;7.85;51.47
19672;BME280;9983;51.114;13.788;2023-03-16T21:02:31;99708.56;;;7.84;52.25
19672;BME280;9983;51.114;13.788;2023-03-16T21:07:34;99701.16;;;7.96;50.82
19672;BME280;9983;51.114;13.788;2023-03-16T21:12:35;99697.81;;;7.94;49.93
19672;BME280;9983;51.114;13.788;2023-03-16T21:17:38;99690.03;;;7.83;50.53
19672;BME280;9983;51.114;13.788;2023-03-16T21:22:39;99689.25;;;7.73;50.47
19672;BME280;9983;51.114;13.788;2023-03-16T21:27:39;99697.03;;;7.84;50.55
19672;BME280;9983;51.114;13.788;2023-03-16T21:32:40;99685.75;;;7.90;50.38
19672;BME280;9983;51.114;13.788;2023-03-16T21:37:40;99677.47;;;7.48;51.79
19672;BME280;9983;51.114;13.788;2023-03-16T21:42:40;99674.75;;;7.57;51.62
19672;BME280;9983;51.114;13.788;2023-03-16T21:47:41;99683.94;;;7.45;51.19
19672;BME280;9983;51.114;13.788;2023-03-16T21:52:42;99685.81;;;7.62;50.91
19672;BME280;9983;51.114;13.788;2023-03-16T21:57:43;99681.75;;;7.41;51.51
19672;BME280;9983;51.114;13.788;2023-03-16T22:02:44;99659.81;;;7.65;51.29
19672;BME280;9983;51.114;13.788;2023-03-16T22:07:45;99661.75;;;7.27;51.75
19672;BME280;9983;51.114;13.788;2023-03-16T22:12:46;99663.63;;;7.44;51.51
19672;BME280;9983;51.114;13.788;2023-03-16T22:17:46;99653.06;;;7.25;50.98
19672;BME280;9983;51.114;13.788;2023-03-16T22:22:47;99649.41;;;7.26;51.95
19672;BME280;9983;51.114;13.788;2023-03-16T22:27:48;99643.47;;;7.05;51.92
19672;BME280;9983;51.114;13.788;2023-03-16T22:32:51;99624.44;;;7.27;50.70
19672;BME280;9983;51.114;13.788;2023-03-16T22:37:56;99619.72;;;7.11;51.52
19672;BME280;9983;51.114;13.788;2023-03-16T22:42:59;99613.97;;;6.89;51.72
19672;BME280;9983;51.114;13.788;2023-03-16T22:48:14;99608.53;;;7.08;51.89
19672;BME280;9983;51.114;13.788;2023-03-16T22:53:38;99613.59;;;7.11;50.46
19672;BME280;9983;51.114;13.788;2023-03-16T22:58:42;99605.88;;;6.80;52.13
19672;BME280;9983;51.114;13.788;2023-03-16T23:03:46;99603.22;;;7.08;50.04
19672;BME280;9983;51.114;13.788;2023-03-16T23:08:48;99607.03;;;7.23;50.39
19672;BME280;9983;51.114;13.788;2023-03-16T23:13:49;99610.00;;;7.20;48.95
19672;BME280;9983;51.114;13.788;2023-03-16T23:18:53;99605.72;;;7.09;48.61
19672;BME280;9983;51.114;13.788;2023-03-16T23:23:54;99603.22;;;7.08;48.69
19672;BME280;9983;51.114;13.788;2023-03-16T23:28:55;99597.28;;;7.14;47.86
19672;BME280;9983;51.114;13.788;2023-03-16T23:33:55;99598.56;;;7.10;47.62
19672;BME280;9983;51.114;13.788;2023-03-16T23:38:56;99599.25;;;7.12;47.10
19672;BME280;9983;51.114;13.788;2023-03-16T23:43:56;99589.50;;;7.03;48.08
19672;BME280;9983;51.114;13.788;2023-03-16T23:49:00;99587.81;;;7.02;46.74
19672;BME280;9983;51.114;13.788;2023-03-16T23:54:13;99589.19;;;7.06;46.20
19672;BME280;9983;51.114;13.788;2023-03-16T23:59:15;99574.09;;;6.97;46.92
